Time;durP1;ratioP1;P1;durP2;ratioP2;P2;SDS_P1;SDS_P2;PMS_P1;PMS_P2;Temp;Humidity;BMP_temperature;BMP_pressure;BME280_temperature;BME280_humidity;BME280_pressure;Samples;Min_cycle;Max_cycle;Signal;HPM_P1;HPM_P2
2023/08/25 00:00:39;;;;;;;10.52;8.65;;;19.60;99.90;;;;;;5129194;27;20090;-64
2023/08/25 00:03:06;;;;;;;13.38;9.63;;;19.60;99.90;;;;;;5135409;27;20055;-59
2023/08/25 00:05:39;;;;;;;10.68;9.38;;;19.50;99.90;;;;;;5125833;27;20521;-65
2023/08/25 00:08:05;;;;;;;12.95;9.70;;;19.50;99.90;;;;;;5130515;27;20119;-61
2023/08/25 00:10:32;;;;;;;12.90;9.93;;;19.50;99.90;;;;;;5091205;27;20065;-64
2023/08/25 00:12:58;;;;;;;11.48;10.27;;;19.50;99.90;;;;;;5128197;27;20138;-62
2023/08/25 00:15:23;;;;;;;13.30;9.90;;;19.40;99.90;;;;;;5119881;27;20062;-63
2023/08/25 00:17:50;;;;;;;17.65;11.15;;;19.40;99.90;;;;;;5121659;27;20142;-60
2023/08/25 00:20:16;;;;;;;12.40;10.32;;;19.40;99.90;;;;;;5112076;27;20051;-61
2023/08/25 00:22:42;;;;;;;13.38;9.65;;;19.40;99.90;;;;;;5127518;27;20058;-58
2023/08/25 00:25:08;;;;;;;10.25;9.05;;;19.40;99.90;;;;;;5123744;27;20059;-60
2023/08/25 00:27:34;;;;;;;11.45;10.32;;;19.40;99.90;;;;;;5124859;27;20389;-62
2023/08/25 00:29:59;;;;;;;12.20;9.88;;;19.40;99.90;;;;;;5113139;27;20054;-61
2023/08/25 00:32:25;;;;;;;12.65;9.93;;;19.30;99.90;;;;;;5129893;27;20050;-60
2023/08/25 00:34:51;;;;;;;11.85;10.65;;;19.30;99.90;;;;;;5129512;27;20058;-58
2023/08/25 00:37:17;;;;;;;14.40;11.27;;;19.20;99.90;;;;;;5113143;27;20569;-62
2023/08/25 00:39:43;;;;;;;13.35;11.02;;;19.20;99.90;;;;;;5128675;27;20465;-60
2023/08/25 00:42:08;;;;;;;14.50;11.88;;;19.30;99.90;;;;;;5123889;27;20058;-58
2023/08/25 00:44:34;;;;;;;13.35;10.48;;;19.20;99.90;;;;;;5130470;27;20315;-61
2023/08/25 00:47:04;;;;;;;13.73;12.38;;;19.20;99.90;;;;;;5112825;27;20044;-64
2023/08/25 00:49:30;;;;;;;14.38;12.88;;;19.20;99.90;;;;;;5131443;27;20091;-62
2023/08/25 00:51:56;;;;;;;15.40;12.48;;;19.30;99.90;;;;;;5127529;27;20094;-60
2023/08/25 00:54:26;;;;;;;14.13;11.73;;;19.20;99.90;;;;;;5125116;27;20150;-60
2023/08/25 00:56:52;;;;;;;18.73;13.25;;;19.30;99.90;;;;;;5127164;27;20125;-65
2023/08/25 00:59:18;;;;;;;15.30;12.32;;;19.30;99.90;;;;;;5116414;27;20051;-59
2023/08/25 01:01:47;;;;;;;12.85;11.55;;;19.30;99.90;;;;;;5130095;27;20062;-62
2023/08/25 01:04:13;;;;;;;14.05;12.63;;;19.30;99.90;;;;;;5124109;27;20112;-64
2023/08/25 01:06:39;;;;;;;14.23;12.73;;;19.30;99.90;;;;;;5132078;27;20054;-59
2023/08/25 01:09:06;;;;;;;13.68;12.32;;;19.40;99.90;;;;;;5126497;27;20099;-60
2023/08/25 01:11:44;;;;;;;14.27;12.13;;;19.40;99.90;;;;;;5129234;27;20062;-61
2023/08/25 01:14:22;;;;;;;14.18;12.68;;;19.40;99.90;;;;;;5126712;27;20059;-57
2023/08/25 01:16:57;;;;;;;13.57;12.18;;;19.40;99.90;;;;;;5127000;27;20134;-59
2023/08/25 01:19:52;;;;;;;15.70;14.02;;;19.40;99.90;;;;;;5128610;27;20085;-59
2023/08/25 01:22:33;;;;;;;13.80;12.40;;;19.40;99.90;;;;;;5102312;27;20055;-59
2023/08/25 01:27:26;;;;;;;15.23;13.48;;;19.40;99.90;;;;;;5123661;27;20186;-58
2023/08/25 01:29:53;;;;;;;13.40;12.02;;;19.40;99.90;;;;;;5108348;27;20042;-59
2023/08/25 01:32:19;;;;;;;14.70;13.18;;;19.40;99.90;;;;;;5122781;27;20112;-58
2023/08/25 01:34:46;;;;;;;18.38;13.85;;;19.40;99.90;;;;;;5118944;27;20157;-58
2023/08/25 01:37:29;;;;;;;14.48;13.02;;;19.40;99.90;;;;;;5132133;27;20050;-61
2023/08/25 01:40:07;;;;;;;15.55;14.00;;;19.40;99.90;;;;;;5130103;27;20057;-60
2023/08/25 01:42:33;;;;;;;15.40;13.68;;;19.40;99.90;;;;;;5118123;27;20043;-60
2023/08/25 01:45:04;;;;;;;14.87;13.37;;;19.30;99.90;;;;;;5085387;27;1125866;-59
2023/08/25 01:47:32;;;;;;;16.48;12.85;;;19.30;99.90;;;;;;5087518;27;20055;-59
2023/08/25 01:49:59;;;;;;;16.33;13.73;;;19.20;99.90;;;;;;5124106;27;20050;-59
2023/08/25 01:52:25;;;;;;;16.95;14.75;;;19.20;99.90;;;;;;5127783;27;20063;-60
2023/08/25 01:54:52;;;;;;;17.17;15.32;;;19.20;99.90;;;;;;5125156;27;20054;-58
2023/08/25 01:57:18;;;;;;;15.43;13.77;;;19.20;99.90;;;;;;5107338;27;20051;-59
2023/08/25 01:59:43;;;;;;;16.92;14.93;;;19.20;99.90;;;;;;5112927;27;20055;-61
2023/08/25 02:02:09;;;;;;;20.10;15.90;;;19.10;99.90;;;;;;5123108;27;20571;-59
2023/08/25 02:04:35;;;;;;;17.13;15.20;;;19.20;99.90;;;;;;5127705;27;20142;-58
2023/08/25 02:07:04;;;;;;;16.40;14.63;;;19.20;99.90;;;;;;5125157;27;20062;-63
2023/08/25 02:09:30;;;;;;;19.20;15.70;;;19.10;99.90;;;;;;5130821;27;20066;-58
2023/08/25 02:11:55;;;;;;;16.27;14.38;;;19.00;99.90;;;;;;5127872;27;20059;-60
2023/08/25 02:14:21;;;;;;;15.88;14.27;;;19.10;99.90;;;;;;5123814;27;20043;-59
2023/08/25 02:16:47;;;;;;;18.20;16.33;;;19.10;99.90;;;;;;5128096;27;20839;-58
2023/08/25 02:19:13;;;;;;;16.05;14.38;;;19.10;99.90;;;;;;5123007;27;20149;-58
2023/08/25 02:21:38;;;;;;;15.88;13.38;;;19.10;99.90;;;;;;5130751;27;20744;-59
2023/08/25 02:24:04;;;;;;;17.45;15.65;;;19.10;99.90;;;;;;5125000;27;20829;-57
2023/08/25 02:26:30;;;;;;;18.10;16.15;;;19.10;99.90;;;;;;5127464;27;20079;-59
2023/08/25 02:28:55;;;;;;;16.73;14.93;;;19.10;99.90;;;;;;5125327;27;20082;-58
2023/08/25 02:31:21;;;;;;;17.38;15.57;;;19.10;99.90;;;;;;5116888;27;20058;-58
2023/08/25 02:33:47;;;;;;;17.63;15.40;;;19.10;99.90;;;;;;5110210;27;20047;-58
2023/08/25 02:36:13;;;;;;;16.85;15.05;;;19.10;99.90;;;;;;5124647;27;20054;-58
2023/08/25 02:38:38;;;;;;;18.35;15.23;;;19.10;99.90;;;;;;5129091;27;20038;-58
2023/08/25 02:41:04;;;;;;;16.58;14.88;;;19.10;99.90;;;;;;5125919;27;20057;-58
2023/08/25 02:43:30;;;;;;;18.10;16.33;;;19.10;99.90;;;;;;5126527;27;20386;-58
2023/08/25 02:45:59;;;;;;;17.90;16.05;;;19.00;99.90;;;;;;5110433;27;20089;-58
2023/08/25 02:48:25;;;;;;;17.85;16.05;;;19.00;99.90;;;;;;5130227;27;20092;-59
2023/08/25 02:50:51;;;;;;;20.45;17.50;;;19.00;99.90;;;;;;5129295;27;20062;-58
2023/08/25 02:53:16;;;;;;;19.42;15.40;;;19.00;99.90;;;;;;5124170;27;20074;-58
2023/08/25 02:55:42;;;;;;;18.25;16.27;;;18.90;99.90;;;;;;5122900;27;20787;-59
2023/08/25 02:58:07;;;;;;;20.05;16.98;;;18.90;99.90;;;;;;5127743;27;20492;-58
2023/08/25 03:00:33;;;;;;;19.70;17.65;;;18.80;99.90;;;;;;5126746;27;20519;-58
2023/08/25 03:02:59;;;;;;;21.33;18.38;;;18.80;99.90;;;;;;5125769;27;20514;-58
2023/08/25 03:05:25;;;;;;;20.88;16.70;;;18.80;99.90;;;;;;5106665;27;20571;-58
2023/08/25 03:07:52;;;;;;;22.08;16.88;;;18.70;99.90;;;;;;5128534;27;20063;-58
2023/08/25 03:10:17;;;;;;;21.52;18.23;;;18.70;99.90;;;;;;5094274;28;20167;-58
2023/08/25 03:12:43;;;;;;;21.42;18.17;;;18.70;99.90;;;;;;5117318;27;20104;-59
2023/08/25 03:15:09;;;;;;;20.65;16.73;;;18.70;99.90;;;;;;5093766;27;20521;-58
2023/08/25 03:17:35;;;;;;;21.55;18.33;;;18.70;99.90;;;;;;5125607;27;20062;-58
2023/08/25 03:20:26;;;;;;;19.35;16.55;;;18.70;99.90;;;;;;5107446;28;20055;-59
2023/08/25 03:22:53;;;;;;;19.67;17.63;;;18.70;99.90;;;;;;5105786;27;20051;-59
2023/08/25 03:25:19;;;;;;;18.75;16.75;;;18.70;99.90;;;;;;5106748;27;20055;-58
2023/08/25 03:27:45;;;;;;;20.00;16.98;;;18.70;99.90;;;;;;5133990;27;20691;-58
2023/08/25 03:30:11;;;;;;;25.98;19.65;;;18.80;99.90;;;;;;5090619;27;20054;-58
2023/08/25 03:32:37;;;;;;;19.92;17.95;;;18.80;99.90;;;;;;5118828;27;20046;-58
2023/08/25 03:35:06;;;;;;;21.08;18.95;;;18.80;99.90;;;;;;5131021;27;20059;-59
2023/08/25 03:37:31;;;;;;;21.92;18.85;;;18.90;99.90;;;;;;5129431;27;20094;-58
2023/08/25 03:39:57;;;;;;;22.30;18.13;;;18.90;99.90;;;;;;5131478;27;20138;-58
2023/08/25 03:42:23;;;;;;;21.35;18.17;;;18.90;99.90;;;;;;5129474;27;20059;-58
2023/08/25 03:44:48;;;;;;;21.80;19.50;;;18.90;99.90;;;;;;5131705;27;20055;-59
2023/08/25 03:47:14;;;;;;;21.95;18.90;;;18.90;99.90;;;;;;5127009;27;20168;-58
2023/08/25 03:49:40;;;;;;;22.65;19.15;;;18.90;99.90;;;;;;5129794;27;20051;-58
2023/08/25 03:52:06;;;;;;;23.35;20.90;;;18.90;99.90;;;;;;5120772;27;20062;-57
2023/08/25 03:54:32;;;;;;;27.40;20.83;;;18.90;99.90;;;;;;5126938;27;20050;-58
2023/08/25 03:56:58;;;;;;;25.20;21.52;;;19.00;99.90;;;;;;5128522;27;20055;-58
2023/08/25 03:59:24;;;;;;;25.75;21.60;;;19.00;99.90;;;;;;5127265;27;20439;-57
2023/08/25 04:01:50;;;;;;;27.58;23.58;;;19.00;99.90;;;;;;5141043;27;20065;-58
2023/08/25 04:04:15;;;;;;;25.65;22.45;;;19.00;99.90;;;;;;5129848;27;20055;-57
2023/08/25 04:06:41;;;;;;;26.15;22.00;;;19.40;99.90;;;;;;5127409;27;20054;-58
2023/08/25 04:09:07;;;;;;;26.63;22.92;;;19.00;99.90;;;;;;5128353;27;20088;-57
2023/08/25 04:11:33;;;;;;;28.02;24.40;;;19.00;99.90;;;;;;5124050;27;20047;-58
2023/08/25 04:13:58;;;;;;;30.13;23.67;;;19.10;99.90;;;;;;5131962;27;20042;-58
2023/08/25 04:16:24;;;;;;;30.88;25.30;;;18.70;99.90;;;;;;5125235;27;20050;-59
2023/08/25 04:18:50;;;;;;;33.53;26.80;;;19.10;99.90;;;;;;5131816;27;20047;-59
2023/08/25 04:21:15;;;;;;;32.25;25.63;;;19.10;99.90;;;;;;5107618;27;20577;-59
2023/08/25 04:23:41;;;;;;;34.65;24.65;;;19.10;99.90;;;;;;5113515;27;20051;-59
2023/08/25 04:26:07;;;;;;;33.13;26.13;;;19.20;99.90;;;;;;5109794;27;20485;-58
2023/08/25 04:28:32;;;;;;;32.00;26.50;;;19.10;99.90;;;;;;5106490;27;20051;-59
2023/08/25 04:30:58;;;;;;;31.92;26.90;;;19.20;99.90;;;;;;5128177;27;20055;-59
2023/08/25 04:33:24;;;;;;;32.88;26.25;;;19.20;99.90;;;;;;5122648;27;20398;-59
2023/08/25 04:35:50;;;;;;;32.42;27.52;;;19.20;99.90;;;;;;5127922;27;20058;-58
2023/08/25 04:38:15;;;;;;;33.03;26.17;;;19.20;99.90;;;;;;5106404;27;20051;-59
2023/08/25 04:40:42;;;;;;;30.17;26.15;;;19.20;99.90;;;;;;5126012;27;20042;-58
2023/08/25 04:43:07;;;;;;;37.35;29.10;;;19.20;99.90;;;;;;5127789;27;20051;-58
2023/08/25 04:45:33;;;;;;;34.00;28.17;;;19.20;99.90;;;;;;5123052;27;20054;-58
2023/08/25 04:47:59;;;;;;;36.60;28.85;;;19.30;99.90;;;;;;5108308;27;20052;-58
2023/08/25 04:50:25;;;;;;;34.05;27.58;;;19.20;99.90;;;;;;5123363;27;20505;-58
2023/08/25 04:52:51;;;;;;;29.95;25.42;;;19.20;99.90;;;;;;5130201;27;20055;-58
2023/08/25 04:55:17;;;;;;;30.63;25.17;;;19.20;99.90;;;;;;5108577;27;20055;-58
2023/08/25 04:57:43;;;;;;;32.17;25.50;;;19.30;99.90;;;;;;5106628;27;20421;-57
2023/08/25 05:00:10;;;;;;;32.40;25.67;;;19.30;99.90;;;;;;5130382;27;20564;-56
2023/08/25 05:02:35;;;;;;;29.08;25.92;;;19.30;99.90;;;;;;5124713;27;20047;-57
2023/08/25 05:05:07;;;;;;;36.58;30.05;;;19.40;99.90;;;;;;5111458;27;20547;-58
2023/08/25 05:07:32;;;;;;;36.17;28.00;;;19.40;99.90;;;;;;5124752;27;20055;-58
2023/08/25 05:09:58;;;;;;;37.65;30.05;;;19.40;99.90;;;;;;5131492;27;20916;-58
2023/08/25 05:12:24;;;;;;;39.05;28.98;;;19.40;99.90;;;;;;5128238;27;20255;-57
2023/08/25 05:14:49;;;;;;;32.33;26.30;;;19.40;99.90;;;;;;5125461;27;20051;-58
2023/08/25 05:17:15;;;;;;;33.10;28.13;;;19.40;99.90;;;;;;5126658;27;20679;-57
2023/08/25 05:19:41;;;;;;;40.30;30.02;;;19.40;99.90;;;;;;5128832;27;20437;-59
2023/08/25 05:22:07;;;;;;;34.33;26.45;;;19.40;99.90;;;;;;5127976;27;20062;-58
2023/08/25 05:24:32;;;;;;;29.27;24.48;;;19.40;99.90;;;;;;5128108;27;20047;-58
2023/08/25 05:26:58;;;;;;;34.70;28.20;;;19.50;99.90;;;;;;5105873;27;20061;-58
2023/08/25 05:29:25;;;;;;;33.85;27.25;;;19.60;99.90;;;;;;5129505;27;20519;-59
2023/08/25 05:31:51;;;;;;;31.98;26.40;;;19.60;99.90;;;;;;5125741;27;20055;-58
2023/08/25 05:34:17;;;;;;;35.75;27.85;;;19.70;99.90;;;;;;5122584;27;20043;-59
2023/08/25 05:36:44;;;;;;;35.30;27.08;;;19.70;99.90;;;;;;5129792;27;20057;-58
2023/08/25 05:39:10;;;;;;;33.05;26.73;;;19.70;99.90;;;;;;5131815;27;20054;-58
2023/08/25 05:41:35;;;;;;;38.85;28.35;;;19.80;99.90;;;;;;5116915;27;20055;-58
2023/08/25 05:44:05;;;;;;;37.85;29.67;;;19.80;99.90;;;;;;5087703;27;20112;-59
2023/08/25 05:46:31;;;;;;;39.00;29.55;;;19.80;99.90;;;;;;5128577;27;20088;-59
2023/08/25 05:48:57;;;;;;;33.78;26.55;;;19.70;99.90;;;;;;5124281;27;20074;-58
2023/08/25 05:51:26;;;;;;;37.40;29.00;;;19.80;99.90;;;;;;5125566;27;20063;-58
2023/08/25 05:53:52;;;;;;;39.40;28.83;;;19.80;99.90;;;;;;5127462;27;20503;-58
2023/08/25 05:56:18;;;;;;;31.55;27.52;;;19.80;99.90;;;;;;5122033;27;20047;-58
2023/08/25 05:58:44;;;;;;;37.85;28.27;;;19.80;99.90;;;;;;5128706;27;20457;-58
2023/08/25 06:01:11;;;;;;;31.75;28.20;;;19.70;99.90;;;;;;5128208;27;20055;-57
2023/08/25 06:03:37;;;;;;;31.35;25.73;;;19.70;99.90;;;;;;5095669;27;1102307;-58
2023/08/25 06:06:05;;;;;;;34.70;25.55;;;19.80;99.90;;;;;;5127509;27;20603;-58
2023/08/25 06:08:31;;;;;;;36.60;28.33;;;19.80;99.90;;;;;;5104270;27;20057;-58
2023/08/25 06:10:57;;;;;;;35.50;27.77;;;19.80;99.90;;;;;;5120470;27;20404;-58
2023/08/25 06:13:23;;;;;;;36.67;27.70;;;19.80;99.90;;;;;;5124247;27;20111;-58
2023/08/25 06:15:49;;;;;;;36.58;27.73;;;19.80;99.90;;;;;;5126881;27;20066;-59
2023/08/25 06:18:15;;;;;;;36.03;28.45;;;19.80;99.90;;;;;;5123420;27;20116;-58
2023/08/25 06:20:41;;;;;;;39.60;29.77;;;19.90;99.90;;;;;;5078625;27;20071;-58
2023/08/25 06:23:07;;;;;;;40.22;30.70;;;20.00;99.90;;;;;;5110452;27;20082;-59
2023/08/25 06:25:33;;;;;;;42.13;30.90;;;20.10;99.90;;;;;;5123692;27;20077;-59
2023/08/25 06:27:59;;;;;;;43.22;31.27;;;20.20;99.90;;;;;;5128273;27;20054;-59
2023/08/25 06:30:26;;;;;;;38.10;30.75;;;20.30;99.90;;;;;;5104100;27;20053;-58
2023/08/25 06:32:52;;;;;;;42.42;32.30;;;20.30;99.90;;;;;;5113714;27;20047;-58
2023/08/25 06:35:18;;;;;;;43.28;33.10;;;20.40;99.90;;;;;;5113796;27;20046;-59
2023/08/25 06:37:44;;;;;;;41.08;30.65;;;20.50;99.90;;;;;;5126256;27;20055;-59
2023/08/25 06:40:13;;;;;;;44.90;33.25;;;20.60;99.90;;;;;;5126697;27;20412;-59
2023/08/25 06:42:39;;;;;;;41.30;30.15;;;20.60;99.90;;;;;;5122567;27;20059;-59
2023/08/25 06:45:05;;;;;;;42.90;31.40;;;20.70;99.90;;;;;;5127957;27;20051;-58
2023/08/25 06:47:31;;;;;;;43.90;31.75;;;20.80;99.90;;;;;;5125810;27;20059;-59
2023/08/25 06:49:57;;;;;;;40.10;30.17;;;20.90;99.90;;;;;;5104126;27;20105;-59
2023/08/25 06:52:23;;;;;;;44.17;30.45;;;21.00;99.90;;;;;;5127780;27;20067;-59
2023/08/25 06:54:49;;;;;;;43.90;32.78;;;21.20;99.90;;;;;;5124946;27;20055;-58
2023/08/25 06:57:14;;;;;;;44.50;31.45;;;21.50;99.90;;;;;;5105108;27;20153;-58
2023/08/25 06:59:40;;;;;;;40.80;31.05;;;21.70;99.90;;;;;;5072961;27;20061;-58
2023/08/25 07:02:07;;;;;;;44.72;30.35;;;21.90;99.90;;;;;;5124862;27;20051;-60
2023/08/25 07:04:33;;;;;;;45.05;30.25;;;21.90;99.90;;;;;;5125026;27;20602;-61
2023/08/25 07:06:59;;;;;;;41.33;30.85;;;21.80;99.90;;;;;;5126064;27;20150;-59
2023/08/25 07:09:25;;;;;;;38.15;29.48;;;21.80;99.90;;;;;;5127497;27;20553;-59
2023/08/25 07:11:51;;;;;;;43.83;31.10;;;21.70;99.90;;;;;;5124035;27;20055;-61
2023/08/25 07:14:17;;;;;;;43.70;30.13;;;21.70;99.90;;;;;;5105245;27;20146;-61
2023/08/25 07:16:43;;;;;;;45.05;31.42;;;21.70;99.90;;;;;;5108458;27;20404;-61
2023/08/25 07:19:09;;;;;;;44.75;30.77;;;21.80;99.90;;;;;;5123775;27;20058;-62
2023/08/25 07:21:35;;;;;;;50.78;34.40;;;21.70;99.90;;;;;;5133159;27;20059;-63
2023/08/25 07:26:51;;;;;;;42.70;29.40;;;21.70;99.90;;;;;;5125157;27;20054;-65
2023/08/25 07:29:17;;;;;;;44.55;31.15;;;21.90;99.90;;;;;;5127819;27;20051;-66
2023/08/25 07:31:43;;;;;;;47.80;31.10;;;21.80;99.90;;;;;;5126390;27;20142;-63
2023/08/25 07:34:09;;;;;;;45.83;32.03;;;21.90;99.90;;;;;;5128007;27;20051;-63
2023/08/25 07:36:34;;;;;;;46.85;32.17;;;22.00;99.90;;;;;;5123172;27;20054;-65
2023/08/25 07:39:04;;;;;;;49.58;32.15;;;22.10;99.90;;;;;;5125265;27;20094;-58
2023/08/25 07:41:30;;;;;;;46.78;30.17;;;22.20;99.90;;;;;;5109232;27;20134;-59
2023/08/25 07:43:56;;;;;;;50.00;33.83;;;22.30;99.90;;;;;;5124387;27;20461;-59
2023/08/25 07:46:22;;;;;;;45.28;31.88;;;22.40;99.90;;;;;;5111756;27;20114;-59
2023/08/25 07:48:47;;;;;;;52.72;34.65;;;22.40;99.90;;;;;;5106397;28;20147;-62
2023/08/25 07:51:13;;;;;;;48.25;33.40;;;22.50;99.90;;;;;;5116715;27;20731;-63
2023/08/25 07:53:39;;;;;;;44.60;30.50;;;22.60;99.90;;;;;;5107559;28;20479;-62
2023/08/25 07:56:05;;;;;;;48.78;31.73;;;22.60;99.90;;;;;;5121094;27;20067;-58
2023/08/25 07:58:31;;;;;;;60.80;33.15;;;22.80;99.90;;;;;;5127599;27;20752;-59
2023/08/25 08:00:57;;;;;;;49.85;31.95;;;22.60;99.90;;;;;;5106010;27;20119;-63
2023/08/25 08:03:22;;;;;;;47.17;32.83;;;22.50;99.90;;;;;;5106942;27;20059;-64
2023/08/25 08:05:48;;;;;;;45.60;29.52;;;22.80;99.90;;;;;;5124128;27;20051;-59
2023/08/25 08:08:14;;;;;;;46.42;30.00;;;22.70;99.90;;;;;;5121351;27;20583;-63
2023/08/25 08:10:39;;;;;;;48.70;31.98;;;22.80;99.90;;;;;;5129756;27;20058;-63
2023/08/25 08:13:06;;;;;;;45.65;30.98;;;22.90;99.90;;;;;;5127336;27;20859;-59
2023/08/25 08:15:32;;;;;;;48.63;31.42;;;22.90;99.90;;;;;;5109205;27;20517;-63
2023/08/25 08:17:58;;;;;;;49.25;32.58;;;23.00;99.90;;;;;;5123329;27;20088;-58
2023/08/25 08:20:25;;;;;;;43.10;30.48;;;23.10;99.90;;;;;;5108916;27;20103;-58
2023/08/25 08:22:51;;;;;;;47.53;31.73;;;23.20;99.90;;;;;;5112885;27;20062;-59
2023/08/25 08:25:16;;;;;;;48.47;30.15;;;23.40;99.90;;;;;;5113167;27;20058;-59
2023/08/25 08:27:42;;;;;;;45.03;29.35;;;23.60;99.90;;;;;;5113007;27;20059;-59
2023/08/25 08:30:09;;;;;;;48.03;32.03;;;23.20;99.90;;;;;;5111894;27;20086;-58
2023/08/25 08:32:36;;;;;;;44.75;31.92;;;23.20;99.90;;;;;;5109170;27;20150;-63
2023/08/25 08:35:07;;;;;;;47.17;30.63;;;23.50;99.90;;;;;;5114425;27;20043;-64
2023/08/25 08:37:34;;;;;;;48.03;32.25;;;23.60;99.90;;;;;;5136595;27;21230;-64
2023/08/25 08:40:00;;;;;;;38.88;28.02;;;24.10;99.90;;;;;;5126176;27;20051;-62
2023/08/25 08:42:32;;;;;;;40.95;28.27;;;24.40;99.90;;;;;;5122160;27;20062;-61
2023/08/25 08:47:51;;;;;;;40.88;29.70;;;24.30;99.90;;;;;;5110833;27;20057;-58
2023/08/25 08:50:17;;;;;;;40.55;29.95;;;24.30;99.90;;;;;;5127148;27;20055;-59
2023/08/25 08:52:46;;;;;;;38.92;26.80;;;24.20;99.90;;;;;;5123191;27;20059;-59
2023/08/25 08:55:12;;;;;;;37.25;27.35;;;24.00;99.90;;;;;;5111451;27;20054;-58
2023/08/25 08:57:38;;;;;;;39.05;27.27;;;24.20;99.90;;;;;;5126195;27;20062;-59
2023/08/25 09:00:09;;;;;;;39.05;29.63;;;24.20;99.90;;;;;;5127312;27;20051;-59
2023/08/25 09:02:35;;;;;;;42.00;26.98;;;24.40;99.90;;;;;;5129945;27;20043;-59
2023/08/25 09:05:04;;;;;;;41.75;28.50;;;24.70;99.90;;;;;;5127402;27;20110;-58
2023/08/25 09:07:32;;;;;;;36.33;26.38;;;24.80;99.90;;;;;;5120445;27;20043;-58
2023/08/25 09:09:59;;;;;;;36.50;27.67;;;24.50;99.90;;;;;;5125151;27;20055;-59
2023/08/25 09:12:25;;;;;;;38.85;27.75;;;24.20;99.90;;;;;;5125816;27;20055;-65
2023/08/25 09:14:51;;;;;;;39.38;26.73;;;24.00;99.90;;;;;;5120271;27;20446;-62
2023/08/25 09:17:17;;;;;;;38.50;26.17;;;23.90;99.90;;;;;;5126270;27;20055;-59
2023/08/25 09:19:43;;;;;;;34.90;25.42;;;24.00;99.90;;;;;;5118954;27;20053;-65
2023/08/25 09:22:15;;;;;;;36.28;26.08;;;23.70;99.90;;;;;;5126960;27;20166;-64
2023/08/25 09:24:43;;;;;;;37.38;28.23;;;23.60;99.90;;;;;;5127016;27;20047;-63
2023/08/25 09:27:26;;;;;;;37.08;25.35;;;23.50;99.90;;;;;;5122479;27;20051;-58
2023/08/25 09:32:28;;;;;;;34.17;26.63;;;23.40;99.90;;;;;;5113540;27;20939;-58
2023/08/25 09:34:54;;;;;;;31.73;22.60;;;23.40;99.90;;;;;;5108219;27;20782;-59
2023/08/25 09:37:19;;;;;;;38.40;25.00;;;23.40;99.90;;;;;;5124371;27;20827;-58
2023/08/25 09:39:45;;;;;;;32.97;24.25;;;23.30;99.90;;;;;;5132960;27;20736;-58
2023/08/25 09:42:11;;;;;;;40.15;27.33;;;23.30;99.90;;;;;;5127455;27;20145;-58
2023/08/25 09:44:38;;;;;;;45.95;30.48;;;23.10;99.90;;;;;;5124155;27;20062;-58
2023/08/25 09:49:38;;;;;;;38.80;27.83;;;22.60;99.90;;;;;;5115451;27;20069;-59
2023/08/25 09:52:04;;;;;;;39.20;28.23;;;22.50;99.90;;;;;;5115271;27;20059;-58
2023/08/25 09:54:30;;;;;;;39.95;27.42;;;22.30;99.90;;;;;;5101440;27;20112;-58
2023/08/25 09:56:56;;;;;;;34.83;26.33;;;22.40;99.90;;;;;;5123179;27;20051;-59
2023/08/25 09:59:22;;;;;;;36.45;26.27;;;22.30;99.90;;;;;;5127096;27;20061;-58
2023/08/25 10:01:47;;;;;;;38.90;28.60;;;22.40;99.90;;;;;;5107010;27;20051;-59
2023/08/25 10:04:13;;;;;;;39.58;28.05;;;22.40;99.90;;;;;;5100571;27;20146;-59
2023/08/25 10:06:40;;;;;;;35.85;25.85;;;22.40;99.90;;;;;;5103148;27;20496;-59
2023/08/25 10:09:07;;;;;;;40.45;28.05;;;22.30;99.90;;;;;;5113057;27;20305;-58
2023/08/25 10:11:40;;;;;;;37.00;28.48;;;22.30;99.90;;;;;;5121356;27;20107;-59
2023/08/25 10:14:12;;;;;;;42.55;30.25;;;22.20;99.90;;;;;;5126427;27;20055;-59
2023/08/25 10:16:45;;;;;;;44.00;31.52;;;22.10;99.90;;;;;;5121204;27;20047;-59
2023/08/25 10:19:14;;;;;;;41.53;28.38;;;22.10;99.90;;;;;;5123461;27;20054;-58
2023/08/25 10:21:44;;;;;;;41.47;30.73;;;22.10;99.90;;;;;;5140229;27;20111;-59
2023/08/25 10:24:10;;;;;;;38.03;30.00;;;22.20;99.90;;;;;;5075953;27;1151187;-57
2023/08/25 10:26:39;;;;;;;35.03;27.83;;;22.30;99.90;;;;;;5135171;27;20054;-59
2023/08/25 10:29:06;;;;;;;35.58;29.40;;;22.40;99.90;;;;;;5103421;27;20456;-59
2023/08/25 10:31:32;;;;;;;40.92;30.08;;;22.50;99.90;;;;;;5118645;27;20050;-59
2023/08/25 10:33:58;;;;;;;38.97;28.17;;;22.40;99.90;;;;;;5127528;27;20526;-59
2023/08/25 10:36:24;;;;;;;35.88;26.40;;;22.30;99.90;;;;;;5126529;27;21010;-58
2023/08/25 10:38:59;;;;;;;44.22;30.55;;;22.20;99.90;;;;;;5124344;27;20489;-58
2023/08/25 10:41:27;;;;;;;43.35;29.85;;;22.00;99.90;;;;;;5122783;27;20668;-58
2023/08/25 10:43:57;;;;;;;41.25;31.40;;;21.80;99.90;;;;;;5131426;27;20050;-60
2023/08/25 10:46:23;;;;;;;40.85;29.38;;;21.80;99.90;;;;;;5119181;27;20066;-58
2023/08/25 10:51:27;;;;;;;37.58;28.10;;;21.80;99.90;;;;;;5120844;27;20576;-60
2023/08/25 10:53:54;;;;;;;34.50;27.67;;;21.90;99.90;;;;;;5128057;27;20138;-63
2023/08/25 10:56:22;;;;;;;33.72;27.23;;;22.10;99.90;;;;;;5120570;27;20050;-63
2023/08/25 10:59:04;;;;;;;35.88;28.25;;;22.20;99.90;;;;;;5128296;27;20146;-60
2023/08/25 11:01:36;;;;;;;36.17;25.80;;;22.30;99.90;;;;;;5124123;27;20141;-58
2023/08/25 11:04:12;;;;;;;31.02;26.00;;;22.20;99.90;;;;;;5131140;27;20047;-58
2023/08/25 11:06:42;;;;;;;31.58;26.17;;;22.10;99.90;;;;;;5103559;27;20141;-63
2023/08/25 11:09:10;;;;;;;38.05;26.85;;;22.00;99.90;;;;;;5127405;27;20066;-59
2023/08/25 11:11:37;;;;;;;36.72;28.25;;;22.00;99.90;;;;;;5119607;27;20051;-59
2023/08/25 11:14:05;;;;;;;35.05;28.25;;;21.90;99.90;;;;;;5124489;27;20054;-61
2023/08/25 11:16:31;;;;;;;39.70;26.75;;;21.80;99.90;;;;;;5125694;27;20195;-60
2023/08/25 11:18:56;;;;;;;38.85;27.83;;;21.70;99.90;;;;;;5096726;28;20954;-59
2023/08/25 11:21:24;;;;;;;31.80;25.52;;;21.70;99.90;;;;;;5120601;27;20488;-59
2023/08/25 11:23:49;;;;;;;37.75;27.33;;;21.60;99.90;;;;;;5134989;27;20051;-58
2023/08/25 11:26:19;;;;;;;36.58;27.23;;;21.60;99.90;;;;;;5093659;28;20048;-57
2023/08/25 11:28:49;;;;;;;43.58;28.90;;;21.60;99.90;;;;;;5107355;27;20062;-57
2023/08/25 11:31:15;;;;;;;38.05;26.65;;;21.60;99.90;;;;;;5099910;27;20066;-57
2023/08/25 11:33:41;;;;;;;33.40;27.05;;;21.60;99.90;;;;;;5120650;27;20051;-58
2023/08/25 11:36:07;;;;;;;36.28;27.48;;;21.50;99.90;;;;;;5102859;27;20086;-58
2023/08/25 11:38:33;;;;;;;38.10;26.35;;;21.50;99.90;;;;;;5108614;27;20070;-58
2023/08/25 11:40:59;;;;;;;37.95;28.65;;;21.50;99.90;;;;;;5116330;27;20398;-58
2023/08/25 11:43:36;;;;;;;38.88;28.85;;;21.60;99.90;;;;;;5097802;27;20787;-58
2023/08/25 11:46:05;;;;;;;36.58;25.60;;;21.80;99.90;;;;;;5133839;27;20349;-58
2023/08/25 11:48:34;;;;;;;30.67;23.55;;;21.90;99.90;;;;;;5125983;27;20096;-58
2023/08/25 11:51:04;;;;;;;35.17;23.77;;;21.80;99.90;;;;;;5110082;27;20054;-58
2023/08/25 11:53:31;;;;;;;29.98;24.88;;;21.80;99.90;;;;;;5099552;27;20150;-59
2023/08/25 11:56:04;;;;;;;33.92;26.10;;;21.80;99.90;;;;;;5126051;27;20154;-58
2023/08/25 11:58:34;;;;;;;38.03;25.80;;;21.80;99.90;;;;;;5134685;27;20863;-59
2023/08/25 12:01:04;;;;;;;36.28;25.92;;;21.90;99.90;;;;;;5117030;27;20308;-58
2023/08/25 12:03:30;;;;;;;30.52;25.73;;;21.80;99.90;;;;;;5103015;27;20108;-58
2023/08/25 12:05:56;;;;;;;28.17;22.48;;;21.80;99.90;;;;;;5118192;27;20659;-58
2023/08/25 12:08:23;;;;;;;32.22;25.10;;;21.70;99.90;;;;;;5128225;27;20066;-58
2023/08/25 12:10:49;;;;;;;31.48;25.00;;;21.70;99.90;;;;;;5107577;27;20177;-59
2023/08/25 12:13:15;;;;;;;32.88;24.45;;;21.60;99.90;;;;;;5117037;27;20058;-59
2023/08/25 12:15:42;;;;;;;35.72;25.58;;;21.50;99.90;;;;;;5112539;27;20059;-60
2023/08/25 12:18:11;;;;;;;33.20;25.10;;;21.50;99.90;;;;;;5090869;28;20468;-61
2023/08/25 12:20:42;;;;;;;32.25;25.20;;;21.50;99.90;;;;;;5107460;27;20134;-59
2023/08/25 12:23:08;;;;;;;34.28;24.58;;;21.50;99.90;;;;;;5099033;27;20674;-58
2023/08/25 12:25:35;;;;;;;33.50;25.30;;;21.50;99.90;;;;;;5105195;27;20803;-59
2023/08/25 12:28:04;;;;;;;33.10;25.75;;;21.40;99.90;;;;;;5121266;27;20073;-58
2023/08/25 12:30:30;;;;;;;32.03;26.25;;;21.40;99.90;;;;;;5109206;27;20087;-58
2023/08/25 12:32:55;;;;;;;37.17;26.75;;;21.40;99.90;;;;;;5110536;27;20146;-58
2023/08/25 12:35:23;;;;;;;35.42;26.80;;;21.30;99.90;;;;;;5107033;27;20511;-58
2023/08/25 12:37:49;;;;;;;32.35;27.25;;;21.40;99.90;;;;;;5128308;27;20051;-58
2023/08/25 12:40:20;;;;;;;33.95;24.38;;;21.30;99.90;;;;;;5131065;27;20662;-58
2023/08/25 12:42:51;;;;;;;36.50;25.15;;;21.30;99.90;;;;;;5129886;27;20141;-59